sensor_id;sensor_type;location;lat;lon;timestamp;P1;durP1;ratioP1;P2;durP2;ratioP2
73684;SDS011;61985;51.070;14.064;2023-02-13T00:02:08;15.63;;;7.43;;
73684;SDS011;61985;51.070;14.064;2023-02-13T00:04:34;24.52;;;7.95;;
73684;SDS011;61985;51.070;14.064;2023-02-13T00:06:59;20.70;;;7.85;;
73684;SDS011;61985;51.070;14.064;2023-02-13T00:09:25;15.95;;;7.32;;
73684;SDS011;61985;51.070;14.064;2023-02-13T00:11:51;16.55;;;7.70;;
73684;SDS011;61985;51.070;14.064;2023-02-13T00:14:16;18.50;;;8.48;;
73684;SDS011;61985;51.070;14.064;2023-02-13T00:16:41;15.48;;;7.05;;
73684;SDS011;61985;51.070;14.064;2023-02-13T00:19:07;14.73;;;7.10;;
73684;SDS011;61985;51.070;14.064;2023-02-13T00:21:32;14.70;;;7.03;;
73684;SDS011;61985;51.070;14.064;2023-02-13T00:23:57;14.32;;;6.68;;
73684;SDS011;61985;51.070;14.064;2023-02-13T00:26:23;16.15;;;7.05;;
73684;SDS011;61985;51.070;14.064;2023-02-13T00:28:48;13.52;;;5.90;;
73684;SDS011;61985;51.070;14.064;2023-02-13T00:31:15;12.88;;;6.35;;
73684;SDS011;61985;51.070;14.064;2023-02-13T00:33:42;13.85;;;6.18;;
73684;SDS011;61985;51.070;14.064;2023-02-13T00:36:08;15.05;;;6.80;;
73684;SDS011;61985;51.070;14.064;2023-02-13T00:38:35;19.23;;;6.60;;
73684;SDS011;61985;51.070;14.064;2023-02-13T00:41:02;17.13;;;6.65;;
73684;SDS011;61985;51.070;14.064;2023-02-13T00:43:27;15.50;;;6.53;;
73684;SDS011;61985;51.070;14.064;2023-02-13T00:45:52;21.08;;;8.13;;
73684;SDS011;61985;51.070;14.064;2023-02-13T00:48:22;13.95;;;6.45;;
73684;SDS011;61985;51.070;14.064;2023-02-13T00:50:48;17.17;;;6.75;;
73684;SDS011;61985;51.070;14.064;2023-02-13T00:53:15;13.43;;;6.43;;
73684;SDS011;61985;51.070;14.064;2023-02-13T00:55:41;14.52;;;6.68;;
73684;SDS011;61985;51.070;14.064;2023-02-13T00:58:06;18.02;;;7.97;;
73684;SDS011;61985;51.070;14.064;2023-02-13T01:00:32;17.27;;;7.07;;
73684;SDS011;61985;51.070;14.064;2023-02-13T01:02:57;15.90;;;7.57;;
73684;SDS011;61985;51.070;14.064;2023-02-13T01:05:22;13.68;;;6.53;;
73684;SDS011;61985;51.070;14.064;2023-02-13T01:07:48;15.13;;;6.70;;
73684;SDS011;61985;51.070;14.064;2023-02-13T01:10:14;15.48;;;6.75;;
73684;SDS011;61985;51.070;14.064;2023-02-13T01:12:39;18.77;;;6.63;;
73684;SDS011;61985;51.070;14.064;2023-02-13T01:15:05;15.57;;;6.72;;
73684;SDS011;61985;51.070;14.064;2023-02-13T01:17:31;18.30;;;7.53;;
73684;SDS011;61985;51.070;14.064;2023-02-13T01:19:56;19.92;;;8.85;;
73684;SDS011;61985;51.070;14.064;2023-02-13T01:22:21;24.98;;;8.75;;
73684;SDS011;61985;51.070;14.064;2023-02-13T01:24:47;15.60;;;7.55;;
73684;SDS011;61985;51.070;14.064;2023-02-13T01:27:12;19.23;;;7.70;;
73684;SDS011;61985;51.070;14.064;2023-02-13T01:29:37;17.60;;;7.40;;
73684;SDS011;61985;51.070;14.064;2023-02-13T01:32:03;20.10;;;7.75;;
73684;SDS011;61985;51.070;14.064;2023-02-13T01:34:29;17.42;;;7.25;;
73684;SDS011;61985;51.070;14.064;2023-02-13T01:36:56;21.42;;;8.07;;
73684;SDS011;61985;51.070;14.064;2023-02-13T01:39:21;16.60;;;6.90;;
73684;SDS011;61985;51.070;14.064;2023-02-13T01:41:46;17.58;;;7.05;;
73684;SDS011;61985;51.070;14.064;2023-02-13T01:47:17;17.88;;;7.13;;
73684;SDS011;61985;51.070;14.064;2023-02-13T01:49:48;20.33;;;7.03;;
73684;SDS011;61985;51.070;14.064;2023-02-13T01:52:15;23.67;;;7.45;;
73684;SDS011;61985;51.070;14.064;2023-02-13T01:54:41;16.85;;;6.63;;
73684;SDS011;61985;51.070;14.064;2023-02-13T01:57:12;14.68;;;6.53;;
73684;SDS011;61985;51.070;14.064;2023-02-13T01:59:44;16.55;;;6.30;;
73684;SDS011;61985;51.070;14.064;2023-02-13T02:02:15;14.82;;;6.65;;
73684;SDS011;61985;51.070;14.064;2023-02-13T02:04:42;17.45;;;6.90;;
73684;SDS011;61985;51.070;14.064;2023-02-13T02:07:10;14.60;;;6.65;;
73684;SDS011;61985;51.070;14.064;2023-02-13T02:09:40;18.55;;;7.65;;
73684;SDS011;61985;51.070;14.064;2023-02-13T02:14:47;14.40;;;6.25;;
73684;SDS011;61985;51.070;14.064;2023-02-13T02:17:13;13.93;;;6.88;;
73684;SDS011;61985;51.070;14.064;2023-02-13T02:19:43;14.18;;;6.47;;
73684;SDS011;61985;51.070;14.064;2023-02-13T02:22:18;10.98;;;5.53;;
73684;SDS011;61985;51.070;14.064;2023-02-13T02:30:42;11.98;;;6.45;;
73684;SDS011;61985;51.070;14.064;2023-02-13T02:47:07;15.93;;;6.78;;
73684;SDS011;61985;51.070;14.064;2023-02-13T02:50:15;14.07;;;6.78;;
73684;SDS011;61985;51.070;14.064;2023-02-13T02:55:34;17.95;;;6.72;;
73684;SDS011;61985;51.070;14.064;2023-02-13T02:58:08;15.07;;;6.40;;
73684;SDS011;61985;51.070;14.064;2023-02-13T03:01:06;16.05;;;6.53;;
73684;SDS011;61985;51.070;14.064;2023-02-13T03:03:54;15.52;;;6.40;;
73684;SDS011;61985;51.070;14.064;2023-02-13T03:06:45;16.88;;;6.60;;
73684;SDS011;61985;51.070;14.064;2023-02-13T03:09:15;17.42;;;7.22;;
73684;SDS011;61985;51.070;14.064;2023-02-13T03:12:03;16.67;;;7.20;;
73684;SDS011;61985;51.070;14.064;2023-02-13T03:14:48;18.73;;;7.22;;
73684;SDS011;61985;51.070;14.064;2023-02-13T03:17:14;19.70;;;7.57;;
73684;SDS011;61985;51.070;14.064;2023-02-13T03:23:29;21.23;;;6.82;;
73684;SDS011;61985;51.070;14.064;2023-02-13T03:28:49;14.45;;;6.85;;
73684;SDS011;61985;51.070;14.064;2023-02-13T03:31:51;14.57;;;7.07;;
73684;SDS011;61985;51.070;14.064;2023-02-13T03:34:25;19.73;;;7.97;;
73684;SDS011;61985;51.070;14.064;2023-02-13T03:37:16;14.93;;;7.35;;
73684;SDS011;61985;51.070;14.064;2023-02-13T03:40:11;13.57;;;6.40;;
73684;SDS011;61985;51.070;14.064;2023-02-13T03:42:52;18.67;;;7.45;;
73684;SDS011;61985;51.070;14.064;2023-02-13T03:45:22;17.50;;;7.32;;
73684;SDS011;61985;51.070;14.064;2023-02-13T03:48:11;25.00;;;7.88;;
73684;SDS011;61985;51.070;14.064;2023-02-13T03:50:59;17.45;;;7.30;;
73684;SDS011;61985;51.070;14.064;2023-02-13T03:53:26;18.17;;;8.25;;
73684;SDS011;61985;51.070;14.064;2023-02-13T03:55:55;28.95;;;9.00;;
73684;SDS011;61985;51.070;14.064;2023-02-13T03:58:45;18.50;;;7.88;;
73684;SDS011;61985;51.070;14.064;2023-02-13T04:01:36;19.40;;;8.20;;
73684;SDS011;61985;51.070;14.064;2023-02-13T04:04:08;18.13;;;8.02;;
73684;SDS011;61985;51.070;14.064;2023-02-13T04:06:38;34.85;;;10.70;;
73684;SDS011;61985;51.070;14.064;2023-02-13T04:09:15;34.72;;;9.80;;
73684;SDS011;61985;51.070;14.064;2023-02-13T04:14:18;29.42;;;10.23;;
73684;SDS011;61985;51.070;14.064;2023-02-13T04:16:51;28.50;;;10.82;;
73684;SDS011;61985;51.070;14.064;2023-02-13T04:19:21;25.90;;;10.00;;
73684;SDS011;61985;51.070;14.064;2023-02-13T04:21:53;51.58;;;10.65;;
73684;SDS011;61985;51.070;14.064;2023-02-13T04:24:21;39.35;;;10.82;;
73684;SDS011;61985;51.070;14.064;2023-02-13T04:26:46;72.03;;;10.70;;
73684;SDS011;61985;51.070;14.064;2023-02-13T04:29:11;26.77;;;10.43;;
73684;SDS011;61985;51.070;14.064;2023-02-13T04:31:37;101.78;;;12.45;;
73684;SDS011;61985;51.070;14.064;2023-02-13T04:34:03;54.13;;;10.73;;
73684;SDS011;61985;51.070;14.064;2023-02-13T04:36:28;39.50;;;10.93;;
73684;SDS011;61985;51.070;14.064;2023-02-13T04:38:54;56.20;;;10.73;;
73684;SDS011;61985;51.070;14.064;2023-02-13T04:41:19;54.50;;;12.45;;
73684;SDS011;61985;51.070;14.064;2023-02-13T04:43:45;74.65;;;14.15;;
73684;SDS011;61985;51.070;14.064;2023-02-13T04:46:10;83.07;;;12.77;;
73684;SDS011;61985;51.070;14.064;2023-02-13T04:48:35;28.58;;;10.27;;
73684;SDS011;61985;51.070;14.064;2023-02-13T04:51:01;38.40;;;11.07;;
73684;SDS011;61985;51.070;14.064;2023-02-13T04:53:26;77.03;;;11.38;;
73684;SDS011;61985;51.070;14.064;2023-02-13T04:55:51;56.55;;;10.38;;
73684;SDS011;61985;51.070;14.064;2023-02-13T04:58:17;25.13;;;10.75;;
73684;SDS011;61985;51.070;14.064;2023-02-13T05:00:42;33.30;;;10.38;;
73684;SDS011;61985;51.070;14.064;2023-02-13T05:03:08;28.55;;;10.57;;
73684;SDS011;61985;51.070;14.064;2023-02-13T05:05:35;32.35;;;11.85;;
73684;SDS011;61985;51.070;14.064;2023-02-13T05:08:01;48.38;;;12.48;;
73684;SDS011;61985;51.070;14.064;2023-02-13T05:10:27;57.25;;;12.48;;
73684;SDS011;61985;51.070;14.064;2023-02-13T05:12:52;31.55;;;10.77;;
73684;SDS011;61985;51.070;14.064;2023-02-13T05:15:18;30.50;;;9.85;;
73684;SDS011;61985;51.070;14.064;2023-02-13T05:17:44;35.92;;;12.40;;
73684;SDS011;61985;51.070;14.064;2023-02-13T05:20:10;29.95;;;9.93;;
73684;SDS011;61985;51.070;14.064;2023-02-13T05:22:36;35.78;;;10.82;;
73684;SDS011;61985;51.070;14.064;2023-02-13T05:25:20;27.95;;;10.25;;
73684;SDS011;61985;51.070;14.064;2023-02-13T05:27:45;28.92;;;10.45;;
73684;SDS011;61985;51.070;14.064;2023-02-13T05:30:11;31.33;;;10.40;;
73684;SDS011;61985;51.070;14.064;2023-02-13T05:32:37;37.30;;;11.63;;
73684;SDS011;61985;51.070;14.064;2023-02-13T05:35:03;28.30;;;10.00;;
73684;SDS011;61985;51.070;14.064;2023-02-13T05:37:29;30.77;;;9.68;;
73684;SDS011;61985;51.070;14.064;2023-02-13T05:39:54;29.63;;;10.65;;
73684;SDS011;61985;51.070;14.064;2023-02-13T05:42:19;25.55;;;9.55;;
73684;SDS011;61985;51.070;14.064;2023-02-13T05:44:44;28.48;;;9.75;;
73684;SDS011;61985;51.070;14.064;2023-02-13T05:47:10;24.27;;;9.18;;
73684;SDS011;61985;51.070;14.064;2023-02-13T05:49:35;21.33;;;8.57;;
73684;SDS011;61985;51.070;14.064;2023-02-13T05:52:00;20.90;;;9.18;;
73684;SDS011;61985;51.070;14.064;2023-02-13T05:54:26;28.88;;;9.98;;
73684;SDS011;61985;51.070;14.064;2023-02-13T05:56:51;19.08;;;8.27;;
73684;SDS011;61985;51.070;14.064;2023-02-13T05:59:16;25.02;;;8.23;;
73684;SDS011;61985;51.070;14.064;2023-02-13T06:01:42;26.70;;;8.52;;
73684;SDS011;61985;51.070;14.064;2023-02-13T06:04:07;23.23;;;8.82;;
73684;SDS011;61985;51.070;14.064;2023-02-13T06:06:32;20.88;;;7.53;;
73684;SDS011;61985;51.070;14.064;2023-02-13T06:08:58;20.80;;;7.88;;
73684;SDS011;61985;51.070;14.064;2023-02-13T06:11:23;20.35;;;6.97;;
73684;SDS011;61985;51.070;14.064;2023-02-13T06:13:49;21.35;;;7.68;;
73684;SDS011;61985;51.070;14.064;2023-02-13T06:16:14;17.58;;;6.95;;
73684;SDS011;61985;51.070;14.064;2023-02-13T06:18:39;13.82;;;6.30;;
73684;SDS011;61985;51.070;14.064;2023-02-13T06:21:05;18.45;;;6.10;;
73684;SDS011;61985;51.070;14.064;2023-02-13T06:23:31;16.75;;;6.70;;
73684;SDS011;61985;51.070;14.064;2023-02-13T06:26:01;15.02;;;6.35;;
73684;SDS011;61985;51.070;14.064;2023-02-13T06:28:27;14.57;;;6.03;;
73684;SDS011;61985;51.070;14.064;2023-02-13T06:30:52;15.55;;;7.10;;
73684;SDS011;61985;51.070;14.064;2023-02-13T06:33:18;16.77;;;6.65;;
73684;SDS011;61985;51.070;14.064;2023-02-13T06:35:43;15.52;;;6.85;;
73684;SDS011;61985;51.070;14.064;2023-02-13T06:38:08;17.30;;;8.13;;
73684;SDS011;61985;51.070;14.064;2023-02-13T06:40:34;16.00;;;6.47;;
73684;SDS011;61985;51.070;14.064;2023-02-13T06:45:34;15.18;;;7.63;;
73684;SDS011;61985;51.070;14.064;2023-02-13T06:48:01;17.17;;;8.00;;
73684;SDS011;61985;51.070;14.064;2023-02-13T06:50:27;17.20;;;7.63;;
73684;SDS011;61985;51.070;14.064;2023-02-13T06:53:03;20.38;;;8.13;;
73684;SDS011;61985;51.070;14.064;2023-02-13T06:55:30;20.35;;;7.65;;
73684;SDS011;61985;51.070;14.064;2023-02-13T07:00:30;17.45;;;8.18;;
73684;SDS011;61985;51.070;14.064;2023-02-13T07:03:03;16.45;;;6.18;;
73684;SDS011;61985;51.070;14.064;2023-02-13T07:08:19;17.35;;;7.57;;
73684;SDS011;61985;51.070;14.064;2023-02-13T07:10:44;14.55;;;6.53;;
73684;SDS011;61985;51.070;14.064;2023-02-13T07:13:10;18.58;;;7.18;;
73684;SDS011;61985;51.070;14.064;2023-02-13T07:15:36;17.67;;;6.55;;
73684;SDS011;61985;51.070;14.064;2023-02-13T07:18:02;15.07;;;6.40;;
73684;SDS011;61985;51.070;14.064;2023-02-13T07:20:50;16.48;;;6.57;;
73684;SDS011;61985;51.070;14.064;2023-02-13T07:23:17;15.70;;;6.15;;
73684;SDS011;61985;51.070;14.064;2023-02-13T07:25:42;15.13;;;6.63;;
73684;SDS011;61985;51.070;14.064;2023-02-13T07:28:08;23.85;;;6.53;;
73684;SDS011;61985;51.070;14.064;2023-02-13T07:30:34;15.75;;;6.30;;
73684;SDS011;61985;51.070;14.064;2023-02-13T07:33:00;33.83;;;15.93;;
73684;SDS011;61985;51.070;14.064;2023-02-13T07:38:02;28.83;;;11.75;;
73684;SDS011;61985;51.070;14.064;2023-02-13T07:40:28;16.83;;;7.60;;
73684;SDS011;61985;51.070;14.064;2023-02-13T07:42:53;27.60;;;17.02;;
73684;SDS011;61985;51.070;14.064;2023-02-13T07:45:19;47.78;;;31.73;;
73684;SDS011;61985;51.070;14.064;2023-02-13T07:47:44;51.05;;;36.13;;
73684;SDS011;61985;51.070;14.064;2023-02-13T07:50:10;36.90;;;22.17;;
73684;SDS011;61985;51.070;14.064;2023-02-13T07:52:35;24.30;;;11.40;;
73684;SDS011;61985;51.070;14.064;2023-02-13T07:55:02;22.13;;;8.95;;
73684;SDS011;61985;51.070;14.064;2023-02-13T07:57:27;16.02;;;6.95;;
73684;SDS011;61985;51.070;14.064;2023-02-13T07:59:53;21.33;;;10.45;;
73684;SDS011;61985;51.070;14.064;2023-02-13T08:02:18;17.90;;;7.22;;
73684;SDS011;61985;51.070;14.064;2023-02-13T08:04:43;17.10;;;7.10;;
73684;SDS011;61985;51.070;14.064;2023-02-13T08:07:15;18.23;;;7.30;;
73684;SDS011;61985;51.070;14.064;2023-02-13T08:09:45;14.82;;;7.63;;
73684;SDS011;61985;51.070;14.064;2023-02-13T08:12:29;21.33;;;8.82;;
73684;SDS011;61985;51.070;14.064;2023-02-13T08:14:56;20.40;;;8.32;;
73684;SDS011;61985;51.070;14.064;2023-02-13T08:17:21;21.42;;;8.57;;
73684;SDS011;61985;51.070;14.064;2023-02-13T08:19:46;25.40;;;11.70;;
73684;SDS011;61985;51.070;14.064;2023-02-13T08:22:12;22.05;;;8.73;;
73684;SDS011;61985;51.070;14.064;2023-02-13T08:24:37;25.52;;;8.60;;
73684;SDS011;61985;51.070;14.064;2023-02-13T08:27:02;29.98;;;10.30;;
73684;SDS011;61985;51.070;14.064;2023-02-13T08:29:28;28.20;;;9.93;;
73684;SDS011;61985;51.070;14.064;2023-02-13T08:31:53;25.83;;;10.02;;
73684;SDS011;61985;51.070;14.064;2023-02-13T08:34:18;28.70;;;10.50;;
73684;SDS011;61985;51.070;14.064;2023-02-13T08:36:44;27.20;;;10.43;;
73684;SDS011;61985;51.070;14.064;2023-02-13T08:39:09;22.60;;;9.63;;
73684;SDS011;61985;51.070;14.064;2023-02-13T08:41:35;29.83;;;10.63;;
73684;SDS011;61985;51.070;14.064;2023-02-13T08:44:00;35.72;;;12.05;;
73684;SDS011;61985;51.070;14.064;2023-02-13T08:46:25;28.15;;;11.23;;
73684;SDS011;61985;51.070;14.064;2023-02-13T08:48:51;35.00;;;10.63;;
73684;SDS011;61985;51.070;14.064;2023-02-13T08:51:16;42.55;;;12.10;;
73684;SDS011;61985;51.070;14.064;2023-02-13T08:53:41;37.97;;;12.63;;
73684;SDS011;61985;51.070;14.064;2023-02-13T08:56:07;48.25;;;14.32;;
73684;SDS011;61985;51.070;14.064;2023-02-13T08:58:32;44.45;;;13.20;;
73684;SDS011;61985;51.070;14.064;2023-02-13T09:00:58;41.20;;;13.40;;
73684;SDS011;61985;51.070;14.064;2023-02-13T09:03:23;62.33;;;15.50;;
73684;SDS011;61985;51.070;14.064;2023-02-13T09:05:49;55.42;;;14.68;;
73684;SDS011;61985;51.070;14.064;2023-02-13T09:08:16;49.45;;;14.00;;
73684;SDS011;61985;51.070;14.064;2023-02-13T09:10:42;44.40;;;14.30;;
73684;SDS011;61985;51.070;14.064;2023-02-13T09:13:10;52.40;;;13.85;;
73684;SDS011;61985;51.070;14.064;2023-02-13T09:15:39;43.35;;;12.77;;
73684;SDS011;61985;51.070;14.064;2023-02-13T09:18:05;45.88;;;14.15;;
73684;SDS011;61985;51.070;14.064;2023-02-13T09:20:31;48.80;;;15.82;;
73684;SDS011;61985;51.070;14.064;2023-02-13T09:22:56;43.70;;;13.20;;
73684;SDS011;61985;51.070;14.064;2023-02-13T09:25:22;39.70;;;14.82;;
73684;SDS011;61985;51.070;14.064;2023-02-13T09:27:47;44.88;;;14.00;;
73684;SDS011;61985;51.070;14.064;2023-02-13T09:30:12;37.58;;;11.93;;
73684;SDS011;61985;51.070;14.064;2023-02-13T09:32:46;44.03;;;12.90;;
73684;SDS011;61985;51.070;14.064;2023-02-13T09:35:12;39.03;;;13.18;;
73684;SDS011;61985;51.070;14.064;2023-02-13T09:37:38;47.85;;;13.70;;
73684;SDS011;61985;51.070;14.064;2023-02-13T09:40:05;40.13;;;12.32;;
73684;SDS011;61985;51.070;14.064;2023-02-13T09:42:39;36.08;;;12.20;;
73684;SDS011;61985;51.070;14.064;2023-02-13T09:45:05;35.85;;;12.25;;
73684;SDS011;61985;51.070;14.064;2023-02-13T09:47:36;41.35;;;12.95;;
73684;SDS011;61985;51.070;14.064;2023-02-13T09:50:20;30.92;;;11.13;;
73684;SDS011;61985;51.070;14.064;2023-02-13T09:52:49;33.90;;;11.70;;
73684;SDS011;61985;51.070;14.064;2023-02-13T09:56:02;36.85;;;11.38;;
73684;SDS011;61985;51.070;14.064;2023-02-13T09:58:30;32.45;;;11.38;;
73684;SDS011;61985;51.070;14.064;2023-02-13T10:00:58;32.40;;;12.10;;
73684;SDS011;61985;51.070;14.064;2023-02-13T10:06:07;38.60;;;13.68;;
73684;SDS011;61985;51.070;14.064;2023-02-13T10:16:52;22.40;;;10.20;;
73684;SDS011;61985;51.070;14.064;2023-02-13T10:22:16;25.05;;;10.45;;
73684;SDS011;61985;51.070;14.064;2023-02-13T10:24:53;26.40;;;10.43;;
73684;SDS011;61985;51.070;14.064;2023-02-13T10:27:37;30.23;;;11.63;;
73684;SDS011;61985;51.070;14.064;2023-02-13T10:32:46;39.20;;;17.02;;
73684;SDS011;61985;51.070;14.064;2023-02-13T10:35:17;34.65;;;14.85;;
73684;SDS011;61985;51.070;14.064;2023-02-13T10:37:46;30.88;;;12.73;;
73684;SDS011;61985;51.070;14.064;2023-02-13T10:40:15;30.17;;;12.82;;
73684;SDS011;61985;51.070;14.064;2023-02-13T10:43:24;27.00;;;10.73;;
73684;SDS011;61985;51.070;14.064;2023-02-13T10:48:21;26.17;;;11.10;;
73684;SDS011;61985;51.070;14.064;2023-02-13T11:01:43;24.92;;;12.02;;
73684;SDS011;61985;51.070;14.064;2023-02-13T11:04:16;22.60;;;10.15;;
73684;SDS011;61985;51.070;14.064;2023-02-13T11:06:45;21.30;;;8.82;;
73684;SDS011;61985;51.070;14.064;2023-02-13T11:09:18;21.33;;;8.98;;
73684;SDS011;61985;51.070;14.064;2023-02-13T11:11:44;28.25;;;11.32;;
73684;SDS011;61985;51.070;14.064;2023-02-13T11:14:16;18.42;;;9.40;;
73684;SDS011;61985;51.070;14.064;2023-02-13T11:16:50;19.30;;;9.45;;
73684;SDS011;61985;51.070;14.064;2023-02-13T11:22:42;16.75;;;8.32;;
73684;SDS011;61985;51.070;14.064;2023-02-13T11:24:58;17.30;;;8.43;;
73684;SDS011;61985;51.070;14.064;2023-02-13T11:27:26;19.20;;;8.27;;
73684;SDS011;61985;51.070;14.064;2023-02-13T11:30:01;14.90;;;6.75;;
73684;SDS011;61985;51.070;14.064;2023-02-13T11:32:31;12.90;;;6.82;;
73684;SDS011;61985;51.070;14.064;2023-02-13T11:34:58;12.45;;;6.50;;
73684;SDS011;61985;51.070;14.064;2023-02-13T11:37:50;15.65;;;7.38;;
73684;SDS011;61985;51.070;14.064;2023-02-13T11:40:36;14.13;;;7.63;;
73684;SDS011;61985;51.070;14.064;2023-02-13T11:43:05;15.20;;;7.10;;
73684;SDS011;61985;51.070;14.064;2023-02-13T11:45:31;11.48;;;6.00;;
73684;SDS011;61985;51.070;14.064;2023-02-13T11:47:57;11.40;;;5.90;;
73684;SDS011;61985;51.070;14.064;2023-02-13T11:50:26;14.27;;;6.63;;
73684;SDS011;61985;51.070;14.064;2023-02-13T11:55:32;14.27;;;7.68;;
73684;SDS011;61985;51.070;14.064;2023-02-13T12:02:52;16.33;;;8.70;;
73684;SDS011;61985;51.070;14.064;2023-02-13T12:05:22;18.35;;;8.68;;
73684;SDS011;61985;51.070;14.064;2023-02-13T12:07:49;18.20;;;9.68;;
73684;SDS011;61985;51.070;14.064;2023-02-13T12:10:23;16.65;;;7.65;;
73684;SDS011;61985;51.070;14.064;2023-02-13T12:15:27;20.45;;;8.45;;
73684;SDS011;61985;51.070;14.064;2023-02-13T12:18:04;19.25;;;10.30;;
73684;SDS011;61985;51.070;14.064;2023-02-13T12:29:14;16.15;;;8.40;;
73684;SDS011;61985;51.070;14.064;2023-02-13T12:31:52;18.13;;;8.35;;
73684;SDS011;61985;51.070;14.064;2023-02-13T12:39:57;18.15;;;9.00;;
73684;SDS011;61985;51.070;14.064;2023-02-13T12:45:36;15.65;;;8.48;;
73684;SDS011;61985;51.070;14.064;2023-02-13T12:53:45;14.07;;;7.45;;
73684;SDS011;61985;51.070;14.064;2023-02-13T13:13:05;15.88;;;8.10;;
73684;SDS011;61985;51.070;14.064;2023-02-13T13:16:00;12.68;;;7.25;;
73684;SDS011;61985;51.070;14.064;2023-02-13T13:18:57;14.90;;;7.32;;
73684;SDS011;61985;51.070;14.064;2023-02-13T13:21:34;14.10;;;7.38;;
73684;SDS011;61985;51.070;14.064;2023-02-13T13:24:23;12.20;;;7.28;;
73684;SDS011;61985;51.070;14.064;2023-02-13T13:26:57;14.18;;;7.40;;
73684;SDS011;61985;51.070;14.064;2023-02-13T13:29:44;12.60;;;6.88;;
73684;SDS011;61985;51.070;14.064;2023-02-13T13:32:13;14.82;;;7.72;;
73684;SDS011;61985;51.070;14.064;2023-02-13T13:34:42;13.40;;;7.55;;
73684;SDS011;61985;51.070;14.064;2023-02-13T13:37:13;13.02;;;7.15;;
73684;SDS011;61985;51.070;14.064;2023-02-13T13:42:56;14.40;;;6.75;;
73684;SDS011;61985;51.070;14.064;2023-02-13T13:48:44;13.02;;;7.07;;
73684;SDS011;61985;51.070;14.064;2023-02-13T13:51:50;12.20;;;6.65;;
73684;SDS011;61985;51.070;14.064;2023-02-13T13:57:14;11.55;;;6.75;;
73684;SDS011;61985;51.070;14.064;2023-02-13T14:05:07;12.98;;;6.75;;
73684;SDS011;61985;51.070;14.064;2023-02-13T14:07:43;13.27;;;7.32;;
73684;SDS011;61985;51.070;14.064;2023-02-13T14:15:47;10.73;;;6.60;;
73684;SDS011;61985;51.070;14.064;2023-02-13T14:34:06;11.13;;;5.05;;
73684;SDS011;61985;51.070;14.064;2023-02-13T14:37:05;9.75;;;5.85;;
73684;SDS011;61985;51.070;14.064;2023-02-13T14:42:53;23.48;;;11.32;;
73684;SDS011;61985;51.070;14.064;2023-02-13T14:45:23;9.93;;;5.47;;
73684;SDS011;61985;51.070;14.064;2023-02-13T14:47:53;8.65;;;5.03;;
73684;SDS011;61985;51.070;14.064;2023-02-13T14:52:46;8.32;;;4.70;;
73684;SDS011;61985;51.070;14.064;2023-02-13T14:55:13;8.45;;;4.97;;
73684;SDS011;61985;51.070;14.064;2023-02-13T15:00:33;8.82;;;5.03;;
73684;SDS011;61985;51.070;14.064;2023-02-13T15:05:53;10.25;;;5.85;;
73684;SDS011;61985;51.070;14.064;2023-02-13T15:08:21;10.35;;;5.05;;
73684;SDS011;61985;51.070;14.064;2023-02-13T15:10:51;10.18;;;5.82;;
73684;SDS011;61985;51.070;14.064;2023-02-13T15:16:12;11.63;;;6.22;;
73684;SDS011;61985;51.070;14.064;2023-02-13T15:18:39;45.22;;;20.58;;
73684;SDS011;61985;51.070;14.064;2023-02-13T15:21:08;15.65;;;9.93;;
73684;SDS011;61985;51.070;14.064;2023-02-13T15:23:39;16.52;;;12.40;;
73684;SDS011;61985;51.070;14.064;2023-02-13T15:26:05;15.50;;;7.55;;
73684;SDS011;61985;51.070;14.064;2023-02-13T15:28:31;12.85;;;7.95;;
73684;SDS011;61985;51.070;14.064;2023-02-13T15:31:01;16.38;;;10.93;;
73684;SDS011;61985;51.070;14.064;2023-02-13T15:33:45;15.10;;;10.77;;
73684;SDS011;61985;51.070;14.064;2023-02-13T15:36:19;17.25;;;10.80;;
73684;SDS011;61985;51.070;14.064;2023-02-13T15:38:46;14.45;;;8.07;;
73684;SDS011;61985;51.070;14.064;2023-02-13T15:43:43;13.63;;;7.55;;
73684;SDS011;61985;51.070;14.064;2023-02-13T15:46:17;11.73;;;6.45;;
73684;SDS011;61985;51.070;14.064;2023-02-13T15:48:44;10.68;;;6.13;;
73684;SDS011;61985;51.070;14.064;2023-02-13T15:51:17;13.82;;;7.72;;
73684;SDS011;61985;51.070;14.064;2023-02-13T15:53:53;11.70;;;6.68;;
73684;SDS011;61985;51.070;14.064;2023-02-13T15:56:21;12.23;;;7.03;;
73684;SDS011;61985;51.070;14.064;2023-02-13T15:58:47;13.25;;;7.78;;
73684;SDS011;61985;51.070;14.064;2023-02-13T16:01:13;16.73;;;9.27;;
73684;SDS011;61985;51.070;14.064;2023-02-13T16:03:41;15.55;;;8.05;;
73684;SDS011;61985;51.070;14.064;2023-02-13T16:06:11;16.27;;;8.55;;
73684;SDS011;61985;51.070;14.064;2023-02-13T16:08:43;14.75;;;8.30;;
73684;SDS011;61985;51.070;14.064;2023-02-13T16:13:54;17.42;;;9.80;;
73684;SDS011;61985;51.070;14.064;2023-02-13T16:16:35;18.00;;;10.32;;
73684;SDS011;61985;51.070;14.064;2023-02-13T16:19:13;16.58;;;9.30;;
73684;SDS011;61985;51.070;14.064;2023-02-13T16:21:46;18.98;;;11.05;;
73684;SDS011;61985;51.070;14.064;2023-02-13T16:24:12;16.65;;;7.78;;
73684;SDS011;61985;51.070;14.064;2023-02-13T16:26:40;15.80;;;8.35;;
73684;SDS011;61985;51.070;14.064;2023-02-13T16:29:12;16.75;;;8.88;;
73684;SDS011;61985;51.070;14.064;2023-02-13T16:31:42;16.63;;;9.20;;
73684;SDS011;61985;51.070;14.064;2023-02-13T16:34:20;15.30;;;8.02;;
73684;SDS011;61985;51.070;14.064;2023-02-13T16:36:49;15.95;;;8.77;;
73684;SDS011;61985;51.070;14.064;2023-02-13T16:39:20;15.70;;;9.45;;
73684;SDS011;61985;51.070;14.064;2023-02-13T16:41:49;16.30;;;8.77;;
73684;SDS011;61985;51.070;14.064;2023-02-13T16:46:52;16.75;;;8.85;;
73684;SDS011;61985;51.070;14.064;2023-02-13T16:49:22;18.67;;;9.20;;
73684;SDS011;61985;51.070;14.064;2023-02-13T16:51:54;20.83;;;9.93;;
73684;SDS011;61985;51.070;14.064;2023-02-13T17:02:15;18.83;;;9.70;;
73684;SDS011;61985;51.070;14.064;2023-02-13T17:04:44;21.10;;;11.23;;
73684;SDS011;61985;51.070;14.064;2023-02-13T17:07:11;20.75;;;10.95;;
73684;SDS011;61985;51.070;14.064;2023-02-13T17:09:38;17.60;;;10.07;;
73684;SDS011;61985;51.070;14.064;2023-02-13T17:12:08;21.38;;;11.77;;
73684;SDS011;61985;51.070;14.064;2023-02-13T17:14:36;20.52;;;10.73;;
73684;SDS011;61985;51.070;14.064;2023-02-13T17:17:04;20.02;;;10.75;;
73684;SDS011;61985;51.070;14.064;2023-02-13T17:19:34;18.45;;;9.55;;
73684;SDS011;61985;51.070;14.064;2023-02-13T17:22:00;21.35;;;9.77;;
73684;SDS011;61985;51.070;14.064;2023-02-13T17:24:26;17.85;;;9.45;;
73684;SDS011;61985;51.070;14.064;2023-02-13T17:26:52;20.27;;;10.65;;
73684;SDS011;61985;51.070;14.064;2023-02-13T17:29:17;19.50;;;10.25;;
73684;SDS011;61985;51.070;14.064;2023-02-13T17:31:42;19.20;;;10.25;;
73684;SDS011;61985;51.070;14.064;2023-02-13T17:34:09;22.48;;;10.90;;
73684;SDS011;61985;51.070;14.064;2023-02-13T17:36:35;21.77;;;11.32;;
73684;SDS011;61985;51.070;14.064;2023-02-13T17:39:00;19.42;;;9.75;;
73684;SDS011;61985;51.070;14.064;2023-02-13T17:41:25;19.55;;;10.45;;
73684;SDS011;61985;51.070;14.064;2023-02-13T17:43:51;19.45;;;9.55;;
73684;SDS011;61985;51.070;14.064;2023-02-13T17:46:16;19.70;;;9.73;;
73684;SDS011;61985;51.070;14.064;2023-02-13T17:48:42;19.75;;;10.55;;
73684;SDS011;61985;51.070;14.064;2023-02-13T17:51:09;17.67;;;9.93;;